METAR Data
IDs: Format: Raw Decoded Include TAF

Data at: 1252 UTC 20 Oct 2021

EDAH 201220Z 22014KT CAVOK 17/11 Q1001